createdAt,value
2018-09-26T00:00:49.582Z,29.3
2018-09-26T00:01:51.118Z,29.3
2018-09-26T00:02:52.663Z,29.8
2018-09-26T00:03:54.217Z,30.3
2018-09-26T00:04:55.775Z,29.8
2018-09-26T00:05:57.315Z,29.8
2018-09-26T00:06:58.875Z,30.3
2018-09-26T00:08:00.419Z,29.8
2018-09-26T00:09:01.962Z,29.8
2018-09-26T00:10:03.508Z,29.8
2018-09-26T00:11:05.055Z,29.8
2018-09-26T00:12:06.608Z,29.3
2018-09-26T00:13:08.157Z,29.8
2018-09-26T00:14:09.724Z,29.8
2018-09-26T00:15:11.297Z,30.3
2018-09-26T00:16:12.683Z,29.8
2018-09-26T00:17:14.256Z,29.3
2018-09-26T00:18:15.806Z,30.3
2018-09-26T00:19:17.376Z,28.8
2018-09-26T00:20:18.932Z,29.8
2018-09-26T00:21:20.337Z,29.8
2018-09-26T00:22:21.894Z,29.8
2018-09-26T00:23:23.491Z,28.8
2018-09-26T00:24:25.054Z,29.3
2018-09-26T00:25:26.619Z,29.8
2018-09-26T00:26:28.172Z,29.3
2018-09-26T00:27:29.722Z,28.8
2018-09-26T00:28:31.112Z,28.8
2018-09-26T00:29:32.691Z,29.8
2018-09-26T00:30:34.239Z,29.3
2018-09-26T00:31:35.793Z,29.3
2018-09-26T00:32:37.176Z,29.8
2018-09-26T00:33:38.736Z,29.8
2018-09-26T00:34:40.546Z,28.8
2018-09-26T00:35:42.271Z,28.8
2018-09-26T00:36:43.933Z,29.3
2018-09-26T00:37:45.513Z,29.8
2018-09-26T00:38:47.069Z,29.3
2018-09-26T00:39:48.650Z,28.8
2018-09-26T00:40:50.208Z,28.8
2018-09-26T00:41:51.816Z,29.8
2018-09-26T00:42:53.356Z,29.3
2018-09-26T00:43:54.934Z,29.8
2018-09-26T00:44:56.331Z,29.3
2018-09-26T00:45:57.902Z,28.8
2018-09-26T00:46:59.451Z,29.3
2018-09-26T00:48:00.826Z,29.8
2018-09-26T00:49:02.412Z,29.3
2018-09-26T00:50:03.996Z,29.3
2018-09-26T00:51:05.546Z,29.3
2018-09-26T00:52:07.110Z,29.3
2018-09-26T00:53:08.668Z,29.8
2018-09-26T00:54:10.224Z,29.8
2018-09-26T00:55:11.784Z,29.3
2018-09-26T04:21:09.525Z,38.1
2018-09-26T04:22:11.150Z,39.1
2018-09-26T04:23:12.565Z,38.6
2018-09-26T04:24:13.968Z,38.6
2018-09-26T04:25:15.526Z,38.6
2018-09-26T04:26:17.196Z,38.6
2018-09-26T04:27:19.504Z,38.6
2018-09-26T04:28:21.638Z,39.1
2018-09-26T04:29:23.184Z,38.1
2018-09-26T04:30:24.935Z,38.1
2018-09-26T04:31:26.736Z,38.1
2018-09-26T04:32:28.527Z,38.6
2018-09-26T04:33:30.884Z,37.6
2018-09-26T04:34:32.862Z,38.6
2018-09-26T04:35:34.433Z,38.6
2018-09-26T04:36:35.980Z,38.6
2018-09-26T04:37:37.551Z,38.1
2018-09-26T04:38:39.759Z,37.6
2018-09-26T04:39:41.781Z,38.1
2018-09-26T04:40:43.206Z,38.1
2018-09-26T04:41:44.748Z,38.6
2018-09-26T04:42:46.303Z,38.1
2018-09-26T04:43:47.856Z,38.1
2018-09-26T04:44:49.435Z,38.6
2018-09-26T04:45:50.834Z,38.6
2018-09-26T04:46:52.236Z,37.6
2018-09-26T04:47:53.474Z,37.6
2018-09-26T04:48:55.019Z,38.1
2018-09-26T04:49:56.398Z,38.1
2018-09-26T04:50:58.433Z,38.6
2018-09-26T04:52:29.426Z,38.1
2018-09-26T04:53:30.986Z,38.1
2018-09-26T04:54:32.375Z,38.1
2018-09-26T04:55:33.918Z,38.1
2018-09-26T04:56:35.494Z,38.6
2018-09-26T04:57:37.064Z,38.1
2018-09-26T04:58:38.630Z,38.6
2018-09-26T04:59:40.039Z,38.1
2018-09-26T05:00:41.447Z,38.1
2018-09-26T05:01:43.031Z,37.6
2018-09-26T05:02:44.669Z,38.1
2018-09-26T05:03:46.255Z,38.1
2018-09-26T05:04:47.817Z,38.1
2018-09-26T05:05:49.384Z,37.6
2018-09-26T05:06:50.949Z,37.1
2018-09-26T05:07:52.494Z,37.1
2018-09-26T05:08:54.346Z,37.1
2018-09-26T05:09:56.061Z,37.1
2018-09-26T05:10:57.473Z,37.1
2018-09-26T05:11:59.028Z,38.1
2018-09-26T05:13:00.589Z,38.1
2018-09-26T05:14:02.171Z,37.6
2018-09-26T05:15:03.571Z,38.1
2018-09-26T05:16:04.975Z,37.6
2018-09-26T05:17:06.210Z,38.1
2018-09-26T05:18:07.627Z,37.6
2018-09-26T05:19:09.201Z,37.1
2018-09-26T05:20:10.602Z,37.6
2018-09-26T05:21:11.992Z,38.1
2018-09-26T05:22:13.542Z,37.6
2018-09-26T05:23:15.422Z,38.1
2018-09-26T05:24:17.046Z,37.6
2018-09-26T05:25:18.593Z,37.6
2018-09-26T05:26:20.155Z,38.1
2018-09-26T05:27:21.700Z,37.6
2018-09-26T05:28:23.306Z,37.6
2018-09-26T05:29:24.700Z,38.6
2018-09-26T05:30:26.625Z,38.6
2018-09-26T05:31:28.599Z,38.1
2018-09-26T05:32:29.977Z,38.1
2018-09-26T05:33:31.538Z,38.6
2018-09-26T05:34:33.115Z,39.1
2018-09-26T05:35:34.678Z,38.6
2018-09-26T05:36:36.228Z,39.1
2018-09-26T05:37:37.897Z,39.1
2018-09-26T05:38:39.590Z,39.1
2018-09-26T05:39:41.287Z,39.1
2018-09-26T05:40:42.894Z,39.1
2018-09-26T05:41:44.440Z,39.1
2018-09-26T05:42:46.161Z,40.1
2018-09-26T05:43:47.722Z,39.1
2018-09-26T05:44:49.320Z,39.6
2018-09-26T05:45:50.555Z,40.1
2018-09-26T05:46:51.956Z,39.6
2018-09-26T05:47:53.536Z,40.1
2018-09-26T05:48:55.128Z,40.6
2018-09-26T05:49:56.513Z,39.6
2018-09-26T05:50:57.925Z,40.1
2018-09-26T05:51:59.548Z,39.6
2018-09-26T05:53:00.946Z,39.1
2018-09-26T05:54:02.213Z,40.6
2018-09-26T05:55:03.787Z,40.1
2018-09-26T05:56:05.175Z,39.1
2018-09-26T05:57:06.547Z,39.1
2018-09-26T05:58:08.107Z,39.6
2018-09-26T05:59:09.537Z,39.6
2018-09-26T06:00:10.941Z,39.6
2018-09-26T06:01:12.520Z,39.6
2018-09-26T06:02:13.922Z,39.1
2018-09-26T06:03:15.420Z,39.1
2018-09-26T06:04:16.942Z,39.1
2018-09-26T06:05:18.728Z,39.6
2018-09-26T06:06:20.238Z,40.1
2018-09-26T06:07:21.819Z,38.6
2018-09-26T06:08:23.210Z,38.6
2018-09-26T06:09:24.603Z,39.1
2018-09-26T06:10:25.997Z,39.6
2018-09-26T06:11:27.600Z,38.6
2018-09-26T06:12:29.202Z,38.1
2018-09-26T06:13:30.631Z,39.1
2018-09-26T06:14:32.046Z,39.6
2018-09-26T06:15:33.603Z,39.1
2018-09-26T06:16:35.003Z,38.6
2018-09-26T06:17:36.405Z,39.1
2018-09-26T06:18:37.971Z,39.1
2018-09-26T06:19:39.537Z,39.1
2018-09-26T06:20:41.101Z,38.6
2018-09-26T06:21:42.510Z,38.6
2018-09-26T06:22:44.069Z,38.6
2018-09-26T06:23:45.667Z,39.6
2018-09-26T06:24:47.743Z,38.6
2018-09-26T06:25:49.634Z,39.1
2018-09-26T06:26:51.231Z,38.6
2018-09-26T06:27:52.825Z,38.6
2018-09-26T06:28:54.377Z,39.1
2018-09-26T06:29:55.797Z,38.6
2018-09-26T06:30:57.355Z,38.6
2018-09-26T06:31:58.598Z,37.6
2018-09-26T06:33:00.166Z,39.1
2018-09-26T06:34:01.568Z,38.1
2018-09-26T06:35:03.359Z,38.6
2018-09-26T06:36:05.301Z,38.6
2018-09-26T06:37:06.894Z,38.1
2018-09-26T06:38:08.297Z,37.6
2018-09-26T06:39:09.699Z,38.1
2018-09-26T06:40:11.260Z,37.6
2018-09-26T06:41:12.484Z,38.6
2018-09-26T06:42:13.878Z,37.1
2018-09-26T06:43:15.435Z,37.6
2018-09-26T06:44:16.986Z,37.6
2018-09-26T06:45:18.553Z,38.1
2018-09-26T06:46:20.103Z,38.6
2018-09-26T06:47:21.472Z,37.6
2018-09-26T06:48:22.546Z,37.6
2018-09-26T06:49:24.088Z,38.1
2018-09-26T06:50:25.652Z,37.6
2018-09-26T06:51:27.054Z,37.6
2018-09-26T06:52:28.435Z,37.1
2018-09-26T06:53:29.990Z,37.6
2018-09-26T06:54:31.535Z,37.6
2018-09-26T06:55:34.600Z,37.6
2018-09-26T06:56:36.175Z,37.6
2018-09-26T06:57:37.731Z,38.1
2018-09-26T06:58:39.270Z,37.6
2018-09-26T06:59:40.654Z,37.6
2018-09-26T07:00:42.215Z,37.1
2018-09-26T07:01:43.784Z,37.6
2018-09-26T07:02:45.362Z,38.1
2018-09-26T07:03:46.908Z,38.1
2018-09-26T07:04:48.489Z,37.6
2018-09-26T07:05:50.049Z,37.6
2018-09-26T07:06:51.611Z,38.1
2018-09-26T07:07:52.837Z,37.6
2018-09-26T07:08:54.239Z,38.1
2018-09-26T07:09:55.629Z,38.1
2018-09-26T07:10:57.031Z,37.1
2018-09-26T07:11:58.623Z,38.1
2018-09-26T07:13:00.089Z,38.6
2018-09-26T07:14:01.496Z,38.6
2018-09-26T07:15:03.126Z,38.6
2018-09-26T07:16:04.689Z,39.1
2018-09-26T07:17:05.928Z,38.6
2018-09-26T07:18:07.503Z,38.6
2018-09-26T07:19:08.871Z,39.1
2018-09-26T07:20:10.449Z,39.6
2018-09-26T07:21:11.847Z,39.6
2018-09-26T07:22:13.403Z,39.6
2018-09-26T07:23:14.986Z,39.1
2018-09-26T07:24:16.554Z,39.6
2018-09-26T07:25:17.783Z,39.6
2018-09-26T07:26:19.329Z,39.6
2018-09-26T07:27:20.883Z,39.6
2018-09-26T07:28:22.464Z,39.1
2018-09-26T07:29:23.858Z,39.1
2018-09-26T07:30:25.437Z,39.6
2018-09-26T07:31:27.340Z,39.6
2018-09-26T07:32:29.161Z,40.1
2018-09-26T07:33:30.558Z,39.1
2018-09-26T07:34:32.127Z,39.6
2018-09-26T07:35:33.714Z,40.1
2018-09-26T07:36:35.433Z,39.1
2018-09-26T07:37:36.999Z,39.1
2018-09-26T07:38:38.934Z,40.1
2018-09-26T07:39:40.347Z,40.1
2018-09-26T07:40:41.920Z,39.6
2018-09-26T07:41:43.318Z,40.1
2018-09-26T07:42:44.722Z,40.1
2018-09-26T07:43:45.954Z,39.6
2018-09-26T07:44:48.148Z,40.1
2018-09-26T07:45:49.963Z,39.6
2018-09-26T07:46:51.217Z,39.6
2018-09-26T07:47:52.800Z,40.1
2018-09-26T07:48:54.038Z,39.6
2018-09-26T07:49:55.430Z,39.1
2018-09-26T07:50:56.826Z,39.1
2018-09-26T07:51:58.403Z,39.1
2018-09-26T07:52:59.964Z,39.1
2018-09-26T07:54:01.466Z,39.1
2018-09-26T07:55:02.859Z,38.6
2018-09-26T07:56:04.096Z,39.1
2018-09-26T07:57:05.678Z,39.1
2018-09-26T07:58:07.053Z,39.1
2018-09-26T07:59:08.734Z,39.1
2018-09-26T08:00:10.319Z,39.1
2018-09-26T08:01:11.887Z,38.6
2018-09-26T08:02:13.333Z,38.6
2018-09-26T08:03:14.755Z,38.6
2018-09-26T08:04:16.309Z,38.6
2018-09-26T08:05:17.896Z,38.6
2018-09-26T08:06:19.310Z,38.6
2018-09-26T08:07:20.887Z,38.6
2018-09-26T08:08:22.454Z,38.6
2018-09-26T08:09:23.867Z,39.1
2018-09-26T08:10:25.425Z,38.6
2018-09-26T08:11:27.435Z,38.6
2018-09-26T08:12:29.421Z,38.1
2018-09-26T08:13:30.990Z,38.6
2018-09-26T08:14:32.430Z,38.6
2018-09-26T08:15:34.012Z,38.1
2018-09-26T08:16:35.431Z,38.6
2018-09-26T08:17:38.356Z,38.6
2018-09-26T08:18:40.070Z,38.6
2018-09-26T08:19:41.963Z,38.1
2018-09-26T08:20:43.338Z,38.1
2018-09-26T08:21:44.917Z,37.6
2018-09-26T08:22:46.501Z,37.6
2018-09-26T08:23:48.279Z,38.1
2018-09-26T08:24:50.254Z,38.6
2018-09-26T08:25:51.823Z,38.1
2018-09-26T08:26:53.408Z,38.1
2018-09-26T08:27:54.811Z,38.6
2018-09-26T08:28:56.239Z,38.1
2018-09-26T08:29:58.104Z,38.1
2018-09-26T08:30:59.760Z,37.1
2018-09-26T08:32:01.341Z,38.1
2018-09-26T08:33:02.589Z,38.1
2018-09-26T08:34:03.985Z,37.6
2018-09-26T08:35:05.546Z,38.1
2018-09-26T08:36:07.128Z,37.6
2018-09-26T08:37:08.686Z,38.1
2018-09-26T08:38:10.265Z,37.6
2018-09-26T08:39:11.852Z,37.6
2018-09-26T08:40:13.432Z,37.1
2018-09-26T08:41:14.827Z,37.6
2018-09-26T08:42:16.040Z,37.6
2018-09-26T08:43:17.591Z,37.6
2018-09-26T08:44:18.806Z,38.6
2018-09-26T08:45:20.368Z,37.1
2018-09-26T08:46:21.949Z,37.6
2018-09-26T08:47:23.365Z,37.6
2018-09-26T08:48:24.941Z,38.1
2018-09-26T08:49:26.317Z,38.1
2018-09-26T08:50:27.887Z,38.1
2018-09-26T08:51:29.447Z,38.6
2018-09-26T08:52:30.691Z,38.1
2018-09-26T08:53:32.320Z,38.6
2018-09-26T08:54:33.601Z,38.6
2018-09-26T08:55:35.177Z,38.1
2018-09-26T08:56:36.737Z,39.1
2018-09-26T08:57:38.149Z,39.1
2018-09-26T08:58:39.718Z,39.6
2018-09-26T08:59:41.555Z,39.6
2018-09-26T09:00:43.423Z,38.6
2018-09-26T09:01:44.807Z,39.6
2018-09-26T09:02:46.216Z,39.1
2018-09-26T09:03:47.778Z,39.1
2018-09-26T09:04:49.337Z,39.1
2018-09-26T09:05:50.888Z,40.1
2018-09-26T09:06:52.458Z,40.1
2018-09-26T09:07:54.026Z,40.1
2018-09-26T09:08:55.591Z,39.6
2018-09-26T09:09:57.126Z,39.1
2018-09-26T09:10:58.748Z,40.6
2018-09-26T09:12:00.325Z,39.6
2018-09-26T09:13:01.877Z,40.1
2018-09-26T09:14:03.469Z,40.1
2018-09-26T09:15:04.897Z,39.6
2018-09-26T09:16:06.477Z,40.1
2018-09-26T09:17:07.915Z,39.1
2018-09-26T09:18:09.515Z,40.1
2018-09-26T09:19:11.081Z,39.1
2018-09-26T09:20:12.760Z,39.6
2018-09-26T09:21:14.272Z,39.1
2018-09-26T09:22:15.864Z,39.6
2018-09-26T09:23:17.414Z,39.6
2018-09-26T09:24:18.986Z,39.6
2018-09-26T09:25:20.417Z,40.1
2018-09-26T09:26:22.334Z,38.6
2018-09-26T09:27:24.265Z,39.6
2018-09-26T09:28:25.771Z,39.1
2018-09-26T09:29:27.157Z,39.6
2018-09-26T09:30:28.546Z,39.1
2018-09-26T09:31:30.101Z,39.1
2018-09-26T09:32:31.666Z,39.6
2018-09-26T09:33:33.229Z,39.6
2018-09-26T09:34:34.627Z,38.6
2018-09-26T09:35:36.188Z,39.1
2018-09-26T09:36:38.206Z,38.6
2018-09-26T09:37:39.766Z,38.6
2018-09-26T09:38:41.354Z,39.1
2018-09-26T09:39:42.899Z,39.6
2018-09-26T09:40:44.478Z,39.1
2018-09-26T09:41:45.986Z,39.1
2018-09-26T09:42:47.383Z,39.6
2018-09-26T09:43:49.048Z,39.1
2018-09-26T09:44:50.754Z,39.1
2018-09-26T09:45:52.318Z,38.6
2018-09-26T09:46:53.896Z,39.1
2018-09-26T09:47:55.460Z,39.1
2018-09-26T09:48:57.051Z,38.1
2018-09-26T09:49:58.288Z,38.1
2018-09-26T09:50:59.697Z,38.1
2018-09-26T09:52:01.093Z,39.1
2018-09-26T09:53:02.668Z,38.1
2018-09-26T09:54:03.915Z,38.1
2018-09-26T09:55:05.475Z,38.6
2018-09-26T09:56:07.178Z,38.6
2018-09-26T09:57:08.834Z,38.6
2018-09-26T09:58:10.435Z,38.6
2018-09-26T09:59:11.997Z,37.6
2018-09-26T10:00:13.252Z,38.6
2018-09-26T10:01:14.812Z,37.6
2018-09-26T10:02:16.776Z,37.6
2018-09-26T10:03:18.613Z,37.6
2018-09-26T10:04:20.191Z,38.6
2018-09-26T10:05:21.428Z,38.1
2018-09-26T10:06:23.021Z,37.1
2018-09-26T10:07:24.590Z,37.6
2018-09-26T10:08:26.555Z,38.1
2018-09-26T10:09:27.975Z,38.1
2018-09-26T10:10:29.555Z,38.1
2018-09-26T10:11:31.110Z,38.1
2018-09-26T10:12:32.511Z,37.6
2018-09-26T10:13:34.089Z,37.6
2018-09-26T10:14:35.515Z,38.1
2018-09-26T10:15:36.753Z,38.6
2018-09-26T10:16:38.050Z,37.6
2018-09-26T10:17:40.020Z,37.6
2018-09-26T10:18:41.847Z,38.1
2018-09-26T10:19:43.408Z,37.6
2018-09-26T10:20:44.825Z,37.6
2018-09-26T10:21:46.230Z,37.6
2018-09-26T10:22:47.785Z,38.1
2018-09-26T10:23:49.357Z,38.6
2018-09-26T10:24:50.926Z,37.1
2018-09-26T10:25:52.516Z,37.6
2018-09-26T10:26:53.913Z,37.6
2018-09-26T10:27:55.483Z,37.6
2018-09-26T10:28:57.051Z,37.6
2018-09-26T10:29:58.595Z,37.1
2018-09-26T10:30:59.989Z,37.6
2018-09-26T10:32:01.561Z,36.7
2018-09-26T10:33:03.129Z,37.1
2018-09-26T10:34:04.521Z,38.1
2018-09-26T10:35:06.676Z,37.1
2018-09-26T10:36:08.302Z,38.1
2018-09-26T10:37:09.869Z,37.6
2018-09-26T10:38:11.606Z,37.6
2018-09-26T10:39:13.055Z,38.6
2018-09-26T10:40:14.622Z,38.6
2018-09-26T10:41:16.194Z,37.6
2018-09-26T10:42:17.746Z,38.1
2018-09-26T10:43:19.320Z,38.6
2018-09-26T10:44:21.464Z,38.6
2018-09-26T10:45:23.367Z,38.6
2018-09-26T10:46:24.941Z,39.1
2018-09-26T10:47:26.518Z,38.6
2018-09-26T10:48:28.089Z,38.6
2018-09-26T10:49:29.658Z,39.1
2018-09-26T10:50:31.231Z,39.6
2018-09-26T10:51:32.802Z,39.6
2018-09-26T10:52:34.361Z,39.1
2018-09-26T10:53:35.917Z,39.6
2018-09-26T10:54:37.469Z,39.6
2018-09-26T10:55:39.031Z,39.6
2018-09-26T10:56:41.240Z,40.1
2018-09-26T10:57:43.081Z,39.6
2018-09-26T10:58:44.678Z,39.1
2018-09-26T10:59:45.916Z,40.1
2018-09-26T11:00:47.479Z,40.1
2018-09-26T11:01:49.049Z,39.1
2018-09-26T11:02:50.609Z,39.1
2018-09-26T11:03:52.214Z,40.1
2018-09-26T11:04:53.784Z,39.6
2018-09-26T11:05:55.348Z,39.6
2018-09-26T11:06:56.782Z,40.1
2018-09-26T11:07:58.171Z,39.1
2018-09-26T11:08:59.754Z,40.1
2018-09-26T11:10:01.305Z,39.6
2018-09-26T11:11:02.736Z,39.6
2018-09-26T11:12:04.293Z,39.1
2018-09-26T11:13:05.850Z,39.6
2018-09-26T11:14:07.337Z,40.1
2018-09-26T11:15:09.056Z,39.6
2018-09-26T11:16:10.955Z,40.1
2018-09-26T11:17:12.446Z,39.1
2018-09-26T11:18:13.666Z,39.6
2018-09-26T11:19:14.913Z,39.1
2018-09-26T11:20:16.748Z,39.1
2018-09-26T11:21:18.911Z,40.1
2018-09-26T11:22:21.199Z,39.6
2018-09-26T11:23:23.238Z,39.1
2018-09-26T11:24:24.791Z,38.6
2018-09-26T11:25:26.180Z,38.6
2018-09-26T11:26:28.009Z,39.6
2018-09-26T11:27:29.679Z,38.6
2018-09-26T11:28:31.246Z,39.6
2018-09-26T11:29:32.497Z,39.6
2018-09-26T11:30:34.077Z,39.1
2018-09-26T11:31:35.636Z,38.6
2018-09-26T11:32:36.902Z,39.1
2018-09-26T11:33:38.710Z,38.1
2018-09-26T11:34:40.500Z,39.1
2018-09-26T11:35:41.768Z,39.1
2018-09-26T11:36:43.178Z,39.1
2018-09-26T11:37:44.575Z,39.1
2018-09-26T11:38:46.043Z,38.1
2018-09-26T11:39:47.629Z,39.1
2018-09-26T11:40:49.210Z,38.6
2018-09-26T11:41:50.781Z,38.6
2018-09-26T11:42:52.372Z,38.1
2018-09-26T11:43:53.965Z,39.1
2018-09-26T11:44:55.533Z,38.6
2018-09-26T11:45:57.103Z,38.6
2018-09-26T11:46:58.745Z,38.6
2018-09-26T11:48:00.317Z,38.1
2018-09-26T11:49:01.727Z,39.6
2018-09-26T11:50:03.279Z,38.1
2018-09-26T11:51:04.906Z,39.1
2018-09-26T11:52:06.681Z,39.1
2018-09-26T11:53:08.354Z,38.1
2018-09-26T11:54:09.904Z,38.1
2018-09-26T11:55:11.475Z,38.1
2018-09-26T11:56:13.195Z,38.1
2018-09-26T11:57:14.870Z,38.6
2018-09-26T11:58:16.473Z,38.6
2018-09-26T11:59:18.168Z,38.6
2018-09-26T12:00:19.224Z,38.1
2018-09-26T12:01:20.781Z,38.6
2018-09-26T12:02:22.679Z,37.6
2018-09-26T12:03:24.619Z,38.1
2018-09-26T12:04:26.691Z,38.1
2018-09-26T12:05:28.037Z,38.1
2018-09-26T12:06:29.438Z,38.1
2018-09-26T12:07:31.097Z,37.1
2018-09-26T12:08:32.972Z,38.1
2018-09-26T12:09:34.532Z,38.1
2018-09-26T12:10:35.759Z,38.1
2018-09-26T12:11:37.376Z,38.1
2018-09-26T12:12:38.958Z,38.6
2018-09-26T12:13:40.752Z,37.6
2018-09-26T12:14:42.470Z,38.1
2018-09-26T12:15:43.880Z,37.1
2018-09-26T12:16:45.432Z,37.1
2018-09-26T12:17:46.824Z,37.6
2018-09-26T12:18:48.405Z,37.6
2018-09-26T12:19:49.981Z,37.6
2018-09-26T12:20:51.203Z,37.6
2018-09-26T12:21:53.240Z,37.1
2018-09-26T12:22:54.975Z,37.6
2018-09-26T12:23:56.541Z,37.6
2018-09-26T12:24:57.953Z,37.6
2018-09-26T12:25:59.519Z,37.1
2018-09-26T12:27:00.918Z,37.6
2018-09-26T12:28:02.496Z,37.1
2018-09-26T12:29:04.062Z,38.1
2018-09-26T12:30:05.813Z,37.6
2018-09-26T12:31:07.508Z,38.1
2018-09-26T12:32:08.967Z,38.1
2018-09-26T12:33:10.407Z,38.1
2018-09-26T12:34:12.090Z,38.1
2018-09-26T12:35:13.600Z,38.1
2018-09-26T12:36:15.331Z,38.6
2018-09-26T12:37:16.869Z,37.6
2018-09-26T12:38:18.449Z,38.6
2018-09-26T12:39:20.020Z,39.1
2018-09-26T12:40:22.060Z,38.1
2018-09-26T12:41:23.701Z,39.1
2018-09-26T12:42:25.854Z,38.6
2018-09-26T12:43:27.755Z,39.6
2018-09-26T12:44:29.341Z,39.1
2018-09-26T12:45:30.929Z,39.6
2018-09-26T12:46:32.342Z,39.1
2018-09-26T12:47:33.941Z,39.1
2018-09-26T12:48:36.036Z,39.6
2018-09-26T12:49:37.717Z,39.1
2018-09-26T12:50:39.298Z,39.6
2018-09-26T12:51:40.874Z,40.1
2018-09-26T12:52:42.425Z,40.1
2018-09-26T12:53:44.660Z,40.6
2018-09-26T12:54:46.436Z,39.6
2018-09-26T12:55:47.839Z,39.6
2018-09-26T12:56:49.242Z,39.6
2018-09-26T12:57:50.892Z,40.1
2018-09-26T12:58:52.480Z,40.1
2018-09-26T12:59:54.067Z,40.1
2018-09-26T13:00:55.630Z,40.1
2018-09-26T13:01:57.211Z,39.6
2018-09-26T13:02:58.637Z,40.1
2018-09-26T13:04:00.190Z,40.1
2018-09-26T13:05:01.772Z,40.1
2018-09-26T13:06:03.170Z,40.1
2018-09-26T13:07:04.637Z,40.1
2018-09-26T13:08:06.371Z,39.6
2018-09-26T13:09:08.208Z,40.1
2018-09-26T13:10:10.046Z,39.1
2018-09-26T13:11:11.313Z,40.1
2018-09-26T13:12:12.915Z,39.1
2018-09-26T13:13:14.435Z,40.1
2018-09-26T13:14:16.400Z,39.6
2018-09-26T13:15:18.191Z,39.1
2018-09-26T13:16:19.866Z,39.6
2018-09-26T13:17:21.700Z,38.6
2018-09-26T13:18:23.499Z,39.6
2018-09-26T13:19:25.680Z,39.6
2018-09-26T13:20:27.475Z,39.6
2018-09-26T13:21:29.329Z,40.1
2018-09-26T13:22:30.717Z,39.6
2018-09-26T13:23:32.301Z,39.1
2018-09-26T13:24:33.865Z,39.1
2018-09-26T13:25:36.043Z,39.6
2018-09-26T13:26:37.518Z,38.6
2018-09-26T13:27:39.079Z,39.6
2018-09-26T13:28:40.473Z,39.1
2018-09-26T13:29:42.033Z,39.1
2018-09-26T13:30:43.596Z,39.1
2018-09-26T13:31:45.186Z,39.1
2018-09-26T13:32:46.478Z,39.1
2018-09-26T13:33:47.868Z,39.1
2018-09-26T13:34:49.436Z,38.6
2018-09-26T13:35:51.055Z,38.1
2018-09-26T13:36:52.668Z,38.6
2018-09-26T13:37:54.343Z,38.6
2018-09-26T13:38:56.332Z,38.1
2018-09-26T13:39:58.044Z,38.6
2018-09-26T13:40:59.441Z,38.1
2018-09-26T13:42:00.657Z,38.1
2018-09-26T13:43:02.233Z,38.6
2018-09-26T13:44:03.552Z,38.1
2018-09-26T13:45:05.142Z,38.1
2018-09-26T13:46:06.878Z,39.1
2018-09-26T13:47:08.787Z,38.6
2018-09-26T13:48:10.372Z,37.6
2018-09-26T13:49:11.860Z,38.6
2018-09-26T13:50:13.437Z,38.1
2018-09-26T13:51:15.249Z,37.6
2018-09-26T13:52:17.106Z,38.1
2018-09-26T13:53:18.981Z,38.1
2018-09-26T13:54:20.785Z,37.6
2018-09-26T13:55:22.446Z,38.6
2018-09-26T13:56:24.588Z,37.6
2018-09-26T13:57:26.478Z,38.1
2018-09-26T13:58:28.055Z,37.6
2018-09-26T13:59:29.633Z,38.1
2018-09-26T14:00:31.192Z,38.1
2018-09-26T14:01:32.946Z,38.1
2018-09-26T14:02:34.851Z,37.6
2018-09-26T14:03:36.249Z,37.1
2018-09-26T14:04:37.684Z,38.1
2018-09-26T14:05:39.088Z,38.6
2018-09-26T14:06:40.476Z,37.6
2018-09-26T14:07:41.891Z,37.6
2018-09-26T14:08:43.718Z,37.6
2018-09-26T14:09:45.115Z,37.6
2018-09-26T14:10:47.244Z,38.1
2018-09-26T14:12:03.590Z,37.1
2018-09-26T14:13:05.008Z,38.1
2018-09-26T14:14:06.631Z,36.7
2018-09-26T14:15:08.278Z,38.1
2018-09-26T14:16:09.702Z,37.6
2018-09-26T14:17:11.068Z,37.6
2018-09-26T14:18:12.873Z,37.6
2018-09-26T14:19:14.595Z,37.6
2018-09-26T14:20:16.296Z,37.6
2018-09-26T14:21:18.114Z,37.6
2018-09-26T14:22:20.136Z,37.6
2018-09-26T14:23:22.058Z,38.1
2018-09-26T14:24:23.764Z,38.1
2018-09-26T14:25:25.321Z,37.6
2018-09-26T14:26:27.406Z,37.6
2018-09-26T14:27:28.987Z,38.1
2018-09-26T14:28:30.560Z,38.1
2018-09-26T14:29:31.992Z,37.1
2018-09-26T14:30:34.874Z,38.1
2018-09-26T14:31:37.176Z,38.6
2018-09-26T14:32:38.791Z,38.1
2018-09-26T14:33:40.581Z,38.6
2018-09-26T14:34:42.277Z,38.1
2018-09-26T14:35:43.684Z,39.1
2018-09-26T14:36:45.530Z,39.1
2018-09-26T14:37:47.125Z,39.1
2018-09-26T14:38:48.995Z,39.6
2018-09-26T14:39:50.786Z,39.1
2018-09-26T14:40:52.352Z,39.1
2018-09-26T14:41:53.929Z,40.1
2018-09-26T14:42:55.160Z,40.1
2018-09-26T14:43:56.738Z,39.1
2018-09-26T14:44:58.328Z,39.6
2018-09-26T14:46:00.450Z,40.1
2018-09-26T14:47:02.167Z,40.1
2018-09-26T14:48:03.726Z,40.1
2018-09-26T14:49:05.204Z,39.1
2018-09-26T14:50:06.996Z,40.1
2018-09-26T14:51:08.457Z,40.1
2018-09-26T14:52:09.862Z,39.1
2018-09-26T14:53:11.562Z,40.6
2018-09-26T14:54:13.335Z,40.1
2018-09-26T14:55:15.185Z,39.6
2018-09-26T14:56:17.226Z,40.1
2018-09-26T14:57:19.396Z,39.6
2018-09-26T14:58:21.448Z,40.1
2018-09-26T14:59:23.136Z,40.6
2018-09-26T15:00:24.639Z,39.6
2018-09-26T15:01:26.559Z,40.6
2018-09-26T15:02:28.159Z,40.6
2018-09-26T15:03:29.729Z,40.1
2018-09-26T15:04:31.574Z,39.6
2018-09-26T15:05:32.976Z,39.1
2018-09-26T15:06:34.567Z,40.1
2018-09-26T15:07:36.049Z,39.6
2018-09-26T15:08:37.759Z,39.6
2018-09-26T15:09:39.281Z,38.6
2018-09-26T15:10:40.720Z,39.6
2018-09-26T15:11:42.095Z,39.6
2018-09-26T15:12:43.871Z,39.6
2018-09-26T15:13:45.153Z,39.1
2018-09-26T15:14:46.566Z,39.1
2018-09-26T15:15:47.988Z,39.6
2018-09-26T15:16:49.385Z,39.1
2018-09-26T15:17:50.783Z,39.6
2018-09-26T15:18:52.361Z,39.6
2018-09-26T15:19:53.796Z,39.1
2018-09-26T15:20:55.580Z,39.1
2018-09-26T15:21:56.986Z,39.1
2018-09-26T15:22:58.227Z,38.6
2018-09-26T15:23:59.796Z,39.6
2018-09-26T15:25:01.369Z,39.6
2018-09-26T15:26:02.933Z,39.6
2018-09-26T15:27:04.514Z,39.6
2018-09-26T15:28:06.511Z,38.6
2018-09-26T15:29:08.354Z,39.1
2018-09-26T15:30:10.147Z,38.6
2018-09-26T15:31:11.898Z,39.1
2018-09-26T15:32:13.292Z,38.6
2018-09-26T15:33:15.072Z,38.6
2018-09-26T15:34:17.048Z,39.1
2018-09-26T15:35:18.936Z,39.1
2018-09-26T15:36:20.822Z,38.6
2018-09-26T15:37:22.864Z,38.6
2018-09-26T15:38:25.138Z,39.1
2018-09-26T15:39:26.980Z,38.1
2018-09-26T15:40:28.510Z,38.6
2018-09-26T15:41:30.633Z,38.6
2018-09-26T15:42:32.528Z,38.6
2018-09-26T15:43:34.135Z,38.6
2018-09-26T15:44:35.733Z,38.1
2018-09-26T15:45:37.284Z,38.6
2018-09-26T15:46:38.853Z,38.6
2018-09-26T15:47:40.266Z,38.6
2018-09-26T15:48:41.979Z,37.6
2018-09-26T15:49:43.626Z,38.1
2018-09-26T15:50:45.224Z,38.6
2018-09-26T15:51:46.652Z,37.6
2018-09-26T15:52:48.216Z,38.1
2018-09-26T15:53:49.795Z,37.6
2018-09-26T15:54:51.212Z,38.1
2018-09-26T15:55:52.847Z,37.6
2018-09-26T15:56:54.159Z,38.1
2018-09-26T15:57:55.756Z,37.6
2018-09-26T15:58:57.226Z,37.6
2018-09-26T15:59:58.877Z,37.6
2018-09-26T16:01:00.489Z,37.6
2018-09-26T16:02:01.758Z,38.6
2018-09-26T16:03:03.975Z,38.6
2018-09-26T16:04:06.090Z,38.1
2018-09-26T16:05:07.620Z,37.1
2018-09-26T16:06:09.513Z,37.6
2018-09-26T16:07:11.229Z,37.6
2018-09-26T16:08:12.826Z,38.1
2018-09-26T16:09:14.434Z,37.6
2018-09-26T16:10:16.152Z,37.6
2018-09-26T16:11:17.774Z,37.6
2018-09-26T16:12:19.700Z,37.6
2018-09-26T16:13:21.510Z,37.6
2018-09-26T16:14:23.323Z,38.1
2018-09-26T16:15:25.257Z,37.1
2018-09-26T16:16:26.505Z,38.6
2018-09-26T16:17:27.929Z,37.1
2018-09-26T16:18:29.537Z,38.1
2018-09-26T16:19:31.177Z,37.1
2018-09-26T16:20:32.766Z,37.1
2018-09-26T16:21:34.351Z,37.1
2018-09-26T16:22:35.954Z,38.1
2018-09-26T16:23:37.404Z,39.1
2018-09-26T16:24:38.821Z,38.6
2018-09-26T16:25:40.241Z,38.6
2018-09-26T16:26:41.967Z,39.1
2018-09-26T16:27:43.594Z,38.6
2018-09-26T16:28:45.018Z,38.1
2018-09-26T16:29:46.438Z,39.6
2018-09-26T16:30:48.038Z,38.6
2018-09-26T16:31:49.930Z,39.6
2018-09-26T16:32:51.594Z,39.6
2018-09-26T16:33:53.179Z,39.6
2018-09-26T16:34:54.808Z,39.1
2018-09-26T16:35:56.418Z,39.6
2018-09-26T16:36:58.023Z,39.6
2018-09-26T16:37:59.279Z,39.1
2018-09-26T16:39:01.023Z,40.1
2018-09-26T16:40:02.731Z,40.1
2018-09-26T16:41:04.343Z,40.1
2018-09-26T16:42:06.073Z,40.1
2018-09-26T16:43:07.757Z,39.6
2018-09-26T16:44:09.334Z,39.6
2018-09-26T16:45:11.361Z,40.6
2018-09-26T16:46:13.530Z,39.6
2018-09-26T16:47:15.233Z,39.6
2018-09-26T16:48:17.121Z,40.1
2018-09-26T16:49:19.103Z,40.6
2018-09-26T16:50:21.049Z,40.1
2018-09-26T16:51:22.995Z,39.6
2018-09-26T16:52:25.057Z,39.1
2018-09-26T16:53:27.207Z,40.1
2018-09-26T16:54:28.774Z,39.1
2018-09-26T16:55:30.422Z,40.1
2018-09-26T16:56:32.022Z,40.1
2018-09-26T16:57:33.433Z,40.6
2018-09-26T16:58:34.834Z,40.1
2018-09-26T16:59:36.331Z,39.6
2018-09-26T17:00:37.622Z,39.1
2018-09-26T17:01:39.251Z,39.1
2018-09-26T17:02:40.680Z,40.6
2018-09-26T17:03:41.947Z,40.1
2018-09-26T17:04:43.550Z,40.1
2018-09-26T17:05:44.981Z,39.1